createdAt,value
2022-08-05T00:01:00.940Z,10.00
2022-08-05T00:02:07.880Z,8.90
2022-08-05T00:02:58.429Z,9.40
2022-08-05T00:03:58.414Z,8.20
2022-08-05T00:04:58.416Z,9.10
2022-08-05T00:06:04.961Z,9.20
2022-08-05T00:06:58.414Z,8.70
2022-08-05T00:08:00.158Z,8.70
2022-08-05T00:08:58.417Z,9.30
2022-08-05T00:09:58.419Z,9.70
2022-08-05T00:11:00.927Z,8.60
2022-08-05T00:11:59.772Z,7.50
2022-08-05T00:12:58.423Z,10.20
2022-08-05T00:13:58.428Z,7.90
2022-08-05T00:14:58.425Z,6.40
2022-08-05T00:16:00.340Z,9.50
2022-08-05T00:16:58.442Z,9.50
2022-08-05T00:17:58.433Z,8.10
2022-08-05T00:18:58.922Z,7.60
2022-08-05T00:20:02.411Z,9.40
2022-08-05T00:20:58.435Z,7.00
2022-08-05T00:21:58.436Z,10.30
2022-08-05T00:23:02.491Z,7.90
2022-08-05T00:24:10.622Z,8.70
2022-08-05T00:24:58.442Z,10.20
2022-08-05T00:25:58.441Z,7.70
2022-08-05T00:26:58.700Z,8.40
2022-08-05T00:27:58.449Z,7.00
2022-08-05T00:28:58.447Z,8.40
2022-08-05T00:29:58.453Z,8.50
2022-08-05T00:30:58.449Z,6.90
2022-08-05T00:32:11.001Z,8.10
2022-08-05T00:32:58.452Z,8.80
2022-08-05T00:34:56.930Z,9.50
2022-08-05T00:35:06.804Z,8.00
2022-08-05T00:36:16.062Z,6.40
2022-08-05T00:37:10.690Z,6.90
2022-08-05T00:37:58.455Z,6.60
2022-08-05T00:38:59.447Z,7.20
2022-08-05T00:39:59.288Z,9.70
2022-08-05T00:40:58.461Z,8.60
2022-08-05T00:41:58.465Z,6.00
2022-08-05T00:42:58.474Z,7.60
2022-08-05T00:43:58.468Z,9.20
2022-08-05T00:44:58.466Z,5.60
2022-08-05T00:45:58.469Z,8.20
2022-08-05T00:47:02.973Z,9.00
2022-08-05T00:48:05.500Z,7.80
2022-08-05T00:48:58.471Z,9.60
2022-08-05T00:49:58.472Z,10.20
2022-08-05T00:50:58.473Z,8.40
2022-08-05T00:51:58.476Z,6.10
2022-08-05T00:52:58.473Z,7.60
2022-08-05T00:54:02.565Z,8.20
2022-08-05T00:54:58.472Z,6.50
2022-08-05T00:55:58.474Z,7.20
2022-08-05T00:56:58.478Z,8.40
2022-08-05T00:57:59.374Z,7.40
2022-08-05T00:58:58.479Z,6.50
2022-08-05T00:59:58.482Z,5.20
2022-08-05T01:00:58.560Z,7.80
2022-08-05T01:01:58.547Z,5.70
2022-08-05T01:02:59.946Z,9.10
2022-08-05T01:03:58.485Z,8.30
2022-08-05T01:04:58.487Z,9.50
2022-08-05T01:05:58.488Z,7.90
2022-08-05T01:06:58.485Z,9.60
2022-08-05T01:08:39.898Z,6.70
2022-08-05T01:08:58.486Z,6.70
2022-08-05T01:09:58.488Z,7.80
2022-08-05T01:10:58.486Z,9.00
2022-08-05T01:12:01.911Z,7.20
2022-08-05T01:13:05.414Z,7.10
2022-08-05T01:13:59.724Z,7.30
2022-08-05T01:14:58.492Z,9.10
2022-08-05T01:15:58.493Z,8.00
2022-08-05T01:16:58.497Z,9.00
2022-08-05T01:17:58.493Z,9.20
2022-08-05T01:18:58.492Z,7.40
2022-08-05T01:20:01.510Z,7.30
2022-08-05T01:20:58.496Z,9.30
2022-08-05T01:21:58.494Z,7.90
2022-08-05T01:22:58.496Z,11.00
2022-08-05T01:23:58.495Z,7.10
2022-08-05T01:24:58.496Z,7.50
2022-08-05T01:25:58.495Z,10.30
2022-08-05T01:26:58.500Z,8.10
2022-08-05T01:27:58.514Z,5.90
2022-08-05T01:29:04.307Z,7.50
2022-08-05T01:29:58.501Z,10.00
2022-08-05T01:30:58.500Z,10.40
2022-08-05T01:31:58.514Z,10.20
2022-08-05T01:32:58.510Z,9.40
2022-08-05T01:33:58.500Z,8.70
2022-08-05T01:34:58.501Z,7.10
2022-08-05T01:35:58.502Z,10.00
2022-08-05T01:37:00.500Z,9.50
2022-08-05T01:37:58.503Z,9.00
2022-08-05T01:39:00.926Z,10.70
2022-08-05T01:39:59.022Z,10.80
2022-08-05T01:40:58.501Z,7.50
2022-08-05T01:41:58.505Z,6.30
2022-08-05T01:42:58.504Z,7.80
2022-08-05T01:43:58.517Z,6.50
2022-08-05T01:44:59.148Z,7.00
2022-08-05T01:45:58.507Z,8.10
2022-08-05T01:46:58.508Z,10.40
2022-08-05T01:47:58.508Z,6.00
2022-08-05T01:48:58.506Z,8.20
2022-08-05T01:50:01.862Z,8.00
2022-08-05T01:50:58.509Z,8.20
2022-08-05T01:51:58.818Z,9.30
2022-08-05T01:52:58.507Z,8.50
2022-08-05T01:53:58.978Z,9.00
2022-08-05T01:54:58.511Z,9.40
2022-08-05T01:55:58.504Z,9.10
2022-08-05T01:58:10.131Z,7.10
2022-08-05T01:58:11.342Z,8.00
2022-08-05T01:58:58.509Z,9.70
2022-08-05T01:59:58.511Z,9.20
2022-08-05T02:00:58.519Z,6.90
2022-08-05T02:01:58.908Z,9.40
2022-08-05T02:02:58.513Z,8.70
2022-08-05T02:03:58.512Z,8.60
2022-08-05T02:04:58.511Z,6.90
2022-08-05T02:06:00.892Z,6.90
2022-08-05T02:06:58.519Z,6.30
2022-08-05T02:08:01.067Z,10.70
2022-08-05T02:08:59.327Z,7.30
2022-08-05T02:09:58.515Z,8.40
2022-08-05T02:10:58.515Z,8.80
2022-08-05T02:11:58.518Z,8.70
2022-08-05T02:12:58.518Z,8.70
2022-08-05T02:13:58.516Z,9.60
2022-08-05T02:14:58.515Z,8.00
2022-08-05T02:15:58.517Z,6.20
2022-08-05T02:16:58.518Z,9.80
2022-08-05T02:18:32.992Z,8.30
2022-08-05T02:18:58.523Z,8.70
2022-08-05T02:19:58.517Z,9.30
2022-08-05T02:20:58.711Z,9.70
2022-08-05T02:21:58.518Z,8.30
2022-08-05T02:22:58.524Z,6.50
2022-08-05T02:23:58.518Z,8.20
2022-08-05T02:25:00.091Z,8.00
2022-08-05T02:25:58.519Z,6.20
2022-08-05T02:26:58.519Z,5.60
2022-08-05T02:28:00.322Z,7.50
2022-08-05T02:28:58.578Z,10.30
2022-08-05T02:30:00.728Z,9.50
2022-08-05T02:30:58.521Z,5.70
2022-08-05T02:31:58.520Z,7.60
2022-08-05T02:32:58.522Z,7.90
2022-08-05T02:33:58.528Z,9.80
2022-08-05T02:34:58.522Z,8.70
2022-08-05T02:36:00.823Z,8.00
2022-08-05T02:36:58.521Z,7.10
2022-08-05T02:38:00.180Z,7.10
2022-08-05T02:38:58.556Z,8.00
2022-08-05T02:39:58.523Z,8.50
2022-08-05T02:40:58.525Z,6.50
2022-08-05T02:42:01.286Z,7.20
2022-08-05T02:42:58.524Z,8.70
2022-08-05T02:44:06.151Z,8.90
2022-08-05T02:44:58.523Z,6.80
2022-08-05T02:45:58.523Z,7.20
2022-08-05T02:47:00.662Z,9.00
2022-08-05T02:48:11.576Z,7.90
2022-08-05T02:48:58.530Z,9.70
2022-08-05T02:49:58.526Z,8.50
2022-08-05T02:50:58.525Z,4.80
2022-08-05T02:52:04.031Z,7.80
2022-08-05T02:52:58.530Z,6.80
2022-08-05T02:54:04.006Z,5.70
2022-08-05T02:54:58.531Z,7.00
2022-08-05T02:56:00.351Z,5.60
2022-08-05T02:56:58.532Z,7.60
2022-08-05T02:58:10.336Z,7.50
2022-08-05T02:58:58.525Z,7.20
2022-08-05T02:59:59.373Z,6.50
2022-08-05T03:00:58.530Z,7.50
2022-08-05T03:01:58.569Z,7.40
2022-08-05T03:02:58.528Z,6.90
2022-08-05T03:04:02.733Z,8.50
2022-08-05T03:04:58.529Z,6.30
2022-08-05T03:06:57.162Z,7.20
2022-08-05T03:06:59.510Z,7.80
2022-08-05T03:08:04.579Z,5.40
2022-08-05T03:08:58.530Z,3.90
2022-08-05T03:09:58.529Z,5.40
2022-08-05T03:11:53.642Z,6.40
2022-08-05T03:11:58.526Z,7.20
2022-08-05T03:13:19.538Z,8.20
2022-08-05T03:14:03.084Z,4.90
2022-08-05T03:14:58.529Z,5.90
2022-08-05T03:15:58.531Z,6.20
2022-08-05T03:16:59.075Z,4.90
2022-08-05T03:17:59.414Z,4.90
2022-08-05T03:18:58.537Z,4.30
2022-08-05T03:19:58.678Z,5.90
2022-08-05T03:20:58.533Z,5.40
2022-08-05T03:21:58.592Z,6.30
2022-08-05T03:22:58.531Z,5.60
2022-08-05T03:23:58.532Z,5.40
2022-08-05T03:24:58.532Z,6.20
2022-08-05T03:26:04.971Z,7.50
2022-08-05T03:26:58.532Z,6.10
2022-08-05T03:28:00.120Z,6.00
2022-08-05T03:28:58.532Z,6.30
2022-08-05T03:30:07.208Z,7.10
2022-08-05T03:30:58.532Z,5.10
2022-08-05T03:32:00.701Z,5.20
2022-08-05T03:32:58.537Z,6.50
2022-08-05T03:33:58.532Z,5.30
2022-08-05T03:34:58.532Z,7.70
2022-08-05T03:35:58.533Z,5.50
2022-08-05T03:36:58.531Z,6.00
2022-08-05T03:37:58.555Z,6.20
2022-08-05T03:38:58.602Z,9.10
2022-08-05T03:40:01.646Z,6.80
2022-08-05T03:40:58.665Z,7.00
2022-08-05T03:41:58.533Z,9.60
2022-08-05T03:42:58.532Z,6.70
2022-08-05T03:44:11.246Z,7.90
2022-08-05T03:44:58.532Z,4.20
2022-08-05T03:45:59.081Z,4.40
2022-08-05T03:46:58.533Z,5.50
2022-08-05T03:47:58.538Z,6.40
2022-08-05T03:48:58.535Z,6.50
2022-08-05T03:49:58.532Z,5.80
2022-08-05T03:51:04.840Z,5.50
2022-08-05T03:52:37.043Z,4.60
2022-08-05T03:55:00.395Z,5.00
2022-08-05T03:55:06.917Z,7.60
2022-08-05T03:55:54.083Z,6.30
2022-08-05T03:56:10.215Z,6.30
2022-08-05T03:56:58.912Z,6.60
2022-08-05T03:57:58.533Z,7.10
2022-08-05T03:58:58.530Z,4.50
2022-08-05T03:59:58.532Z,6.20
2022-08-05T04:00:58.601Z,5.00
2022-08-05T04:01:58.900Z,7.60
2022-08-05T04:02:59.232Z,6.00
2022-08-05T04:04:10.276Z,3.40
2022-08-05T04:04:58.536Z,6.10
2022-08-05T04:05:59.261Z,4.90
2022-08-05T04:06:58.536Z,4.60
2022-08-05T04:07:59.081Z,5.70
2022-08-05T04:08:58.535Z,5.80
2022-08-05T04:09:58.534Z,5.10
2022-08-05T04:10:58.537Z,5.60
2022-08-05T04:11:58.535Z,6.40
2022-08-05T04:12:58.821Z,7.20
2022-08-05T04:13:58.537Z,7.00
2022-08-05T04:14:58.593Z,5.80
2022-08-05T04:16:04.434Z,4.80
2022-08-05T04:16:58.543Z,4.40
2022-08-05T04:18:00.105Z,6.80
2022-08-05T04:18:58.536Z,4.10
2022-08-05T04:19:58.711Z,6.60
2022-08-05T04:20:58.536Z,4.70
2022-08-05T04:22:08.747Z,4.70
2022-08-05T04:22:58.536Z,6.30
2022-08-05T04:24:06.226Z,5.00
2022-08-05T04:24:58.539Z,5.40
2022-08-05T04:26:00.847Z,3.30
2022-08-05T04:26:58.537Z,6.40
2022-08-05T04:28:00.642Z,4.30
2022-08-05T04:28:58.537Z,5.50
2022-08-05T04:29:58.543Z,4.90
2022-08-05T04:30:58.537Z,5.00
2022-08-05T04:31:58.539Z,6.40
2022-08-05T04:32:58.539Z,5.50
2022-08-05T04:34:19.697Z,6.10
2022-08-05T04:34:58.540Z,5.70
2022-08-05T04:36:11.244Z,5.80
2022-08-05T04:36:58.540Z,5.00
2022-08-05T04:38:01.968Z,5.20
2022-08-05T04:38:58.559Z,6.00
2022-08-05T04:39:58.540Z,5.90
2022-08-05T04:40:58.780Z,7.90
2022-08-05T04:41:58.543Z,5.10
2022-08-05T04:42:58.545Z,4.20
2022-08-05T04:43:58.541Z,5.00
2022-08-05T04:44:58.545Z,6.90
2022-08-05T04:45:58.545Z,4.50
2022-08-05T04:46:58.767Z,6.50
2022-08-05T04:47:58.543Z,4.70
2022-08-05T04:48:58.848Z,4.30
2022-08-05T04:50:02.635Z,5.90
2022-08-05T04:51:03.673Z,5.90
2022-08-05T04:52:00.596Z,6.10
2022-08-05T04:52:58.549Z,7.60
2022-08-05T04:53:58.554Z,5.90
2022-08-05T04:54:58.914Z,5.10
2022-08-05T04:56:15.441Z,6.20
2022-08-05T04:56:59.717Z,5.80
2022-08-05T04:57:58.559Z,5.80
2022-08-05T04:58:58.555Z,6.30
2022-08-05T04:59:58.980Z,4.40
2022-08-05T05:00:58.646Z,3.80
2022-08-05T05:02:07.284Z,7.20
2022-08-05T05:03:03.658Z,5.40
2022-08-05T05:03:58.561Z,5.70
2022-08-05T05:05:01.611Z,4.60
2022-08-05T05:06:35.885Z,6.20
2022-08-05T05:06:58.562Z,6.30
2022-08-05T05:08:01.822Z,4.20
2022-08-05T05:08:58.566Z,5.30
2022-08-05T05:09:58.574Z,6.60
2022-08-05T05:10:58.573Z,10.10
2022-08-05T05:12:01.825Z,8.10
2022-08-05T05:12:58.602Z,8.00
2022-08-05T05:13:58.570Z,4.20
2022-08-05T05:14:58.576Z,30.90
2022-08-05T05:16:01.770Z,16.60
2022-08-05T05:16:58.573Z,19.40
2022-08-05T05:17:58.848Z,17.30
2022-08-05T05:19:18.090Z,15.40
2022-08-05T05:19:58.579Z,12.30
2022-08-05T05:20:58.650Z,9.90
2022-08-05T05:21:58.582Z,9.70
2022-08-05T05:22:58.580Z,6.60
2022-08-05T05:24:03.991Z,7.20
2022-08-05T05:25:01.344Z,6.30
2022-08-05T05:25:58.584Z,4.70
2022-08-05T05:26:58.588Z,4.10
2022-08-05T05:27:58.594Z,5.90
2022-08-05T05:28:58.588Z,5.10
2022-08-05T05:30:05.053Z,4.70
2022-08-05T05:30:58.590Z,5.70
2022-08-05T05:31:58.591Z,3.50
2022-08-05T05:33:00.548Z,5.70
2022-08-05T05:34:01.887Z,3.60
2022-08-05T05:34:58.593Z,5.40
2022-08-05T05:35:58.596Z,7.30
2022-08-05T05:36:58.596Z,5.30
2022-08-05T05:37:59.574Z,5.40
2022-08-05T05:38:58.632Z,7.30
2022-08-05T05:39:58.603Z,5.80
2022-08-05T05:40:58.607Z,6.00
2022-08-05T05:41:58.605Z,8.70
2022-08-05T05:42:58.604Z,7.70
2022-08-05T05:44:00.586Z,5.70
2022-08-05T05:44:59.537Z,7.90
2022-08-05T05:45:58.609Z,6.60
2022-08-05T05:46:58.609Z,10.10
2022-08-05T05:48:06.293Z,9.30
2022-08-05T05:48:58.611Z,7.40
2022-08-05T05:50:01.495Z,9.20
2022-08-05T05:50:58.612Z,5.90
2022-08-05T05:51:58.615Z,7.90
2022-08-05T05:52:58.612Z,6.80
2022-08-05T05:53:59.896Z,9.50
2022-08-05T05:54:58.618Z,9.80
2022-08-05T05:56:01.367Z,13.40
2022-08-05T05:56:58.616Z,7.20
2022-08-05T05:57:58.624Z,6.30
2022-08-05T05:58:58.623Z,5.70
2022-08-05T05:59:58.622Z,7.10
2022-08-05T06:00:58.623Z,5.80
2022-08-05T06:01:58.634Z,5.10
2022-08-05T06:02:58.627Z,7.50
2022-08-05T06:04:02.127Z,9.30
2022-08-05T06:04:58.691Z,9.40
2022-08-05T06:05:58.650Z,7.70
2022-08-05T06:06:58.632Z,10.00
2022-08-05T06:08:02.296Z,5.40
2022-08-05T06:08:58.660Z,5.50
2022-08-05T06:10:00.937Z,5.30
2022-08-05T06:10:58.631Z,5.90
2022-08-05T06:12:01.192Z,8.60
2022-08-05T06:12:58.635Z,5.20
2022-08-05T06:14:00.436Z,5.30
2022-08-05T06:14:58.638Z,6.40
2022-08-05T06:16:28.839Z,7.00
2022-08-05T06:16:58.639Z,9.80
2022-08-05T06:17:58.637Z,8.10
2022-08-05T06:19:00.783Z,6.90
2022-08-05T06:19:59.511Z,8.10
2022-08-05T06:20:58.638Z,9.20
2022-08-05T06:21:58.644Z,9.00
2022-08-05T06:22:58.643Z,8.50
2022-08-05T06:23:58.642Z,8.40
2022-08-05T06:24:58.642Z,7.00
2022-08-05T06:26:12.150Z,7.50
2022-08-05T06:26:58.644Z,6.80
2022-08-05T06:28:10.757Z,6.40
2022-08-05T06:28:58.645Z,9.10
2022-08-05T06:30:04.275Z,11.00
2022-08-05T06:30:58.656Z,18.40
2022-08-05T06:31:58.650Z,16.50
2022-08-05T06:32:58.651Z,9.20
2022-08-05T06:34:07.570Z,7.90
2022-08-05T06:34:59.199Z,9.70
2022-08-05T06:36:03.926Z,11.20
2022-08-05T06:36:58.791Z,7.10
2022-08-05T06:38:00.977Z,8.00
2022-08-05T06:38:58.686Z,10.10
2022-08-05T06:39:58.660Z,8.80
2022-08-05T06:40:58.660Z,8.50
2022-08-05T06:41:59.140Z,10.70
2022-08-05T06:42:58.658Z,10.60
2022-08-05T06:44:00.768Z,6.30
2022-08-05T06:44:58.665Z,8.90
2022-08-05T06:46:06.981Z,6.00
2022-08-05T06:46:58.682Z,7.00
2022-08-05T06:48:44.067Z,5.90
2022-08-05T06:48:59.678Z,6.40
2022-08-05T06:50:01.185Z,7.10
2022-08-05T06:50:58.674Z,7.40
2022-08-05T06:51:58.674Z,5.60
2022-08-05T06:53:11.315Z,6.00
2022-08-05T06:53:58.681Z,3.70
2022-08-05T06:54:58.683Z,4.40
2022-08-05T06:55:58.684Z,3.90
2022-08-05T06:57:57.652Z,3.60
2022-08-05T06:58:11.805Z,4.70
2022-08-05T06:58:58.688Z,5.20
2022-08-05T06:59:58.698Z,4.50
2022-08-05T07:00:58.743Z,4.20
2022-08-05T07:01:58.699Z,5.70
2022-08-05T07:02:58.703Z,6.10
2022-08-05T07:03:58.700Z,2.90
2022-08-05T07:04:58.704Z,5.20
2022-08-05T07:05:58.708Z,5.00
2022-08-05T07:06:58.708Z,5.90
2022-08-05T07:07:58.712Z,5.60
2022-08-05T07:08:59.081Z,4.90
2022-08-05T07:09:58.723Z,4.10
2022-08-05T07:10:58.721Z,4.50
2022-08-05T07:12:00.615Z,5.70
2022-08-05T07:12:58.727Z,4.70
2022-08-05T07:13:59.857Z,5.00
2022-08-05T07:14:58.730Z,3.50
2022-08-05T07:16:01.236Z,5.50
2022-08-05T07:17:59.723Z,4.80
2022-08-05T07:18:08.903Z,4.00
2022-08-05T07:18:58.749Z,3.20
2022-08-05T07:20:58.748Z,4.60
2022-08-05T07:22:00.527Z,4.00
2022-08-05T07:22:58.756Z,5.10
2022-08-05T07:23:58.754Z,3.10
2022-08-05T07:24:58.759Z,4.00
2022-08-05T07:25:58.761Z,6.50
2022-08-05T07:26:58.758Z,5.80
2022-08-05T07:28:04.161Z,4.20
2022-08-05T07:28:59.792Z,3.30
2022-08-05T07:30:27.724Z,4.40
2022-08-05T07:30:58.770Z,4.30
2022-08-05T07:31:58.769Z,4.50
2022-08-05T07:32:58.795Z,4.10
2022-08-05T07:33:59.821Z,3.30
2022-08-05T07:34:58.788Z,5.30
2022-08-05T07:36:03.943Z,5.20
2022-08-05T07:36:58.781Z,4.90
2022-08-05T07:37:58.792Z,5.00
2022-08-05T07:38:58.852Z,4.90
2022-08-05T07:40:04.362Z,5.80
2022-08-05T07:41:00.302Z,5.90
2022-08-05T07:42:14.720Z,4.50
2022-08-05T07:42:58.787Z,5.10
2022-08-05T07:43:58.923Z,4.30
2022-08-05T07:44:58.795Z,4.60
2022-08-05T07:45:59.082Z,6.30
2022-08-05T07:46:58.796Z,4.20
2022-08-05T07:47:58.799Z,3.70
2022-08-05T07:49:02.529Z,4.10
2022-08-05T07:49:58.802Z,5.00
2022-08-05T07:50:58.802Z,6.00
2022-08-05T07:51:58.806Z,4.60
2022-08-05T07:52:58.808Z,5.70
2022-08-05T07:53:58.808Z,5.30
2022-08-05T07:54:58.810Z,3.20
2022-08-05T07:56:06.554Z,4.60
2022-08-05T07:57:14.012Z,6.40
2022-08-05T07:58:03.128Z,4.90
2022-08-05T07:58:59.546Z,5.20
2022-08-05T07:59:58.816Z,5.90
2022-08-05T08:00:58.835Z,9.70
2022-08-05T08:01:58.836Z,7.50
2022-08-05T08:03:15.201Z,4.30
2022-08-05T08:03:58.824Z,7.60
2022-08-05T08:04:58.820Z,5.10
2022-08-05T08:05:58.822Z,4.90
2022-08-05T08:06:58.823Z,4.50
2022-08-05T08:07:59.603Z,5.90
2022-08-05T08:08:58.823Z,4.40
2022-08-05T08:09:58.828Z,6.20
2022-08-05T08:10:58.828Z,5.10
2022-08-05T08:12:00.078Z,6.80
2022-08-05T08:12:58.871Z,6.80
2022-08-05T08:14:00.862Z,5.70
2022-08-05T08:15:02.414Z,5.00
2022-08-05T08:16:35.793Z,6.20
2022-08-05T08:16:58.832Z,6.00
2022-08-05T08:17:58.834Z,4.40
2022-08-05T08:18:58.837Z,3.60
2022-08-05T08:20:22.477Z,5.10
2022-08-05T08:21:02.503Z,5.30
2022-08-05T08:21:58.836Z,6.40
2022-08-05T08:22:58.836Z,3.70
2022-08-05T08:24:02.727Z,4.60
2022-08-05T08:25:03.082Z,3.40
2022-08-05T08:25:59.831Z,4.70
2022-08-05T08:26:58.840Z,4.90
2022-08-05T08:27:58.842Z,4.20
2022-08-05T08:29:02.168Z,5.20
2022-08-05T08:30:05.749Z,7.50
2022-08-05T08:30:58.846Z,7.90
2022-08-05T08:31:58.844Z,5.80
2022-08-05T08:33:02.668Z,3.70
2022-08-05T08:33:58.847Z,5.00
2022-08-05T08:34:58.851Z,4.50
2022-08-05T08:36:18.444Z,3.90
2022-08-05T08:37:04.893Z,5.00
2022-08-05T08:37:58.850Z,4.20
2022-08-05T08:38:58.932Z,4.70
2022-08-05T08:39:58.886Z,4.40
2022-08-05T08:40:58.855Z,4.90
2022-08-05T08:41:59.778Z,5.00
2022-08-05T08:45:16.726Z,5.30
2022-08-05T08:45:18.027Z,3.30
2022-08-05T08:45:18.731Z,4.80
2022-08-05T08:45:58.856Z,3.70
2022-08-05T08:46:58.859Z,4.70
2022-08-05T08:48:06.746Z,4.80
2022-08-05T08:50:07.797Z,6.20
2022-08-05T08:50:22.230Z,4.20
2022-08-05T08:51:07.746Z,6.00
2022-08-05T08:52:03.215Z,3.50
2022-08-05T08:52:58.863Z,4.20
2022-08-05T08:53:58.863Z,3.60
2022-08-05T08:54:58.863Z,5.30
2022-08-05T08:56:05.016Z,3.60
2022-08-05T08:56:58.866Z,4.30
2022-08-05T08:57:58.883Z,4.80
2022-08-05T08:58:58.869Z,4.10
2022-08-05T08:59:58.869Z,5.50
2022-08-05T09:00:58.893Z,4.70
2022-08-05T09:02:01.169Z,4.00
2022-08-05T09:02:58.873Z,3.80
2022-08-05T09:03:58.874Z,4.80
2022-08-05T09:05:17.626Z,4.50
2022-08-05T09:06:08.867Z,5.80
2022-08-05T09:06:58.914Z,4.40
2022-08-05T09:07:59.227Z,5.50
2022-08-05T09:08:58.876Z,4.50
2022-08-05T09:09:58.877Z,4.00
2022-08-05T09:10:58.876Z,3.60
2022-08-05T09:12:03.390Z,4.10
2022-08-05T09:13:04.511Z,4.00
2022-08-05T09:14:00.767Z,4.30
2022-08-05T09:15:05.622Z,3.70
2022-08-05T09:15:58.882Z,4.90
2022-08-05T09:16:58.881Z,5.70
2022-08-05T09:17:58.882Z,4.40
2022-08-05T09:18:59.417Z,4.00
2022-08-05T09:20:02.926Z,4.10
2022-08-05T09:20:58.884Z,5.00
2022-08-05T09:22:22.888Z,3.50
2022-08-05T09:23:04.871Z,3.50
2022-08-05T09:24:02.349Z,4.40
2022-08-05T09:24:58.898Z,4.20
2022-08-05T09:26:02.798Z,4.00
2022-08-05T09:26:58.888Z,4.40
2022-08-05T09:28:05.139Z,3.70
2022-08-05T09:28:58.888Z,3.30
2022-08-05T09:30:01.230Z,4.90
2022-08-05T09:30:58.893Z,4.70
2022-08-05T09:32:40.852Z,4.00
2022-08-05T09:32:58.900Z,4.90
2022-08-05T09:33:59.276Z,3.60
2022-08-05T09:34:58.896Z,3.70
2022-08-05T09:35:58.896Z,4.90
2022-08-05T09:36:59.824Z,3.30
2022-08-05T09:38:16.366Z,3.50
2022-08-05T09:38:58.932Z,4.90
2022-08-05T09:39:58.962Z,4.60
2022-08-05T09:40:58.902Z,4.10
2022-08-05T09:41:58.901Z,2.90
2022-08-05T09:42:58.902Z,3.60
2022-08-05T09:43:58.903Z,4.80
2022-08-05T09:45:17.596Z,3.80
2022-08-05T09:46:06.828Z,3.70
2022-08-05T09:46:58.905Z,3.50
2022-08-05T09:47:58.910Z,4.80
2022-08-05T09:49:07.595Z,4.70
2022-08-05T09:50:02.364Z,5.20
2022-08-05T09:50:58.911Z,5.30
2022-08-05T09:51:58.912Z,3.00
2022-08-05T09:52:58.915Z,4.40
2022-08-05T09:53:59.375Z,3.70
2022-08-05T09:54:58.916Z,4.00
2022-08-05T09:56:04.036Z,5.20
2022-08-05T09:57:01.722Z,4.80
2022-08-05T09:57:59.982Z,6.20
2022-08-05T09:58:58.931Z,5.50
2022-08-05T09:59:58.920Z,5.90
2022-08-05T10:00:58.919Z,7.60
2022-08-05T10:01:58.923Z,7.40
2022-08-05T10:02:59.250Z,5.90
2022-08-05T10:03:59.887Z,5.20
2022-08-05T10:04:58.924Z,5.90
2022-08-05T10:05:58.926Z,6.30
2022-08-05T10:07:01.430Z,5.90
2022-08-05T10:08:35.972Z,5.10
2022-08-05T10:08:58.926Z,5.90
2022-08-05T10:10:14.042Z,5.60
2022-08-05T10:10:58.929Z,5.30
2022-08-05T10:11:58.928Z,4.70
2022-08-05T10:12:58.928Z,5.60
2022-08-05T10:13:58.930Z,5.90
2022-08-05T10:14:58.934Z,6.20
2022-08-05T10:15:58.931Z,6.70
2022-08-05T10:16:58.935Z,6.00
2022-08-05T10:17:58.936Z,6.20
2022-08-05T10:18:58.933Z,6.40
2022-08-05T10:20:03.948Z,6.70
2022-08-05T10:20:58.936Z,4.70
2022-08-05T10:21:58.936Z,5.20
2022-08-05T10:22:58.935Z,5.00
2022-08-05T10:24:00.323Z,5.50
2022-08-05T10:24:58.934Z,4.00
2022-08-05T10:25:58.937Z,3.90
2022-08-05T10:27:00.505Z,5.50
2022-08-05T10:28:13.576Z,5.50
2022-08-05T10:28:58.979Z,5.10
2022-08-05T10:31:20.356Z,5.20
2022-08-05T10:32:47.374Z,5.30
2022-08-05T10:32:51.846Z,5.40
2022-08-05T10:33:01.911Z,4.90
2022-08-05T10:33:58.941Z,4.60
2022-08-05T10:35:00.832Z,6.70
2022-08-05T10:36:00.071Z,4.60
2022-08-05T10:36:58.946Z,4.80
2022-08-05T10:37:58.945Z,5.00
2022-08-05T10:38:58.986Z,4.60
2022-08-05T10:40:04.177Z,4.60
2022-08-05T10:40:59.115Z,4.60
2022-08-05T10:42:00.994Z,5.30
2022-08-05T10:42:58.954Z,4.10
2022-08-05T10:43:59.281Z,3.90
2022-08-05T10:44:58.953Z,4.20
2022-08-05T10:46:06.188Z,3.70
2022-08-05T10:46:58.954Z,3.30
2022-08-05T10:48:31.962Z,6.40
2022-08-05T10:49:02.652Z,4.40
2022-08-05T10:50:31.980Z,4.80
2022-08-05T10:50:58.957Z,5.10
2022-08-05T10:52:00.255Z,4.60
2022-08-05T10:52:59.008Z,5.00
2022-08-05T10:54:00.888Z,3.00
2022-08-05T10:54:58.976Z,3.60
2022-08-05T10:56:04.632Z,4.10
2022-08-05T10:56:58.972Z,4.20
2022-08-05T10:57:58.970Z,4.50
2022-08-05T10:59:07.199Z,2.60
2022-08-05T11:00:02.451Z,2.80
2022-08-05T11:01:02.774Z,3.70
2022-08-05T11:02:05.381Z,3.80
2022-08-05T11:02:58.981Z,3.30
2022-08-05T11:03:59.031Z,4.20
2022-08-05T11:04:58.982Z,2.80
2022-08-05T11:05:58.986Z,3.20
2022-08-05T11:06:58.984Z,3.20
2022-08-05T11:08:01.123Z,2.90
2022-08-05T11:08:58.988Z,4.60
2022-08-05T11:10:04.086Z,2.90
2022-08-05T11:11:00.886Z,3.20
2022-08-05T11:11:58.991Z,3.50
2022-08-05T11:12:59.000Z,3.60
2022-08-05T11:13:58.994Z,2.80
2022-08-05T11:15:11.911Z,4.10
2022-08-05T11:16:01.576Z,3.30
2022-08-05T11:17:01.171Z,2.80
2022-08-05T11:18:03.730Z,2.90
2022-08-05T11:18:59.003Z,3.50
2022-08-05T11:20:10.501Z,3.40
2022-08-05T11:20:59.233Z,3.00
2022-08-05T11:21:59.008Z,3.70
2022-08-05T11:23:05.763Z,2.40
2022-08-05T11:24:04.139Z,2.90
2022-08-05T11:26:03.149Z,3.10
2022-08-05T11:26:05.736Z,2.60
2022-08-05T11:26:59.018Z,3.40
2022-08-05T11:28:00.550Z,2.90
2022-08-05T11:29:06.744Z,2.20
2022-08-05T11:29:59.022Z,3.60
2022-08-05T11:30:59.025Z,3.10
2022-08-05T11:32:00.469Z,4.10
2022-08-05T11:32:59.030Z,3.30
2022-08-05T11:33:59.030Z,5.00
2022-08-05T11:34:59.032Z,3.20
2022-08-05T11:36:07.706Z,2.70
2022-08-05T11:36:59.037Z,2.70
2022-08-05T11:38:29.638Z,3.30
2022-08-05T11:38:59.357Z,3.20
2022-08-05T11:40:03.186Z,3.10
2022-08-05T11:41:03.430Z,3.60
2022-08-05T11:42:04.207Z,2.60
2022-08-05T11:42:59.050Z,3.10
2022-08-05T11:44:05.640Z,3.20
2022-08-05T11:44:59.051Z,2.50
2022-08-05T11:46:27.344Z,3.70
2022-08-05T11:47:12.054Z,3.00
2022-08-05T11:47:59.062Z,2.30
2022-08-05T11:48:59.065Z,2.10
2022-08-05T11:49:59.062Z,3.10
2022-08-05T11:50:59.063Z,2.90
2022-08-05T11:51:59.067Z,3.80
2022-08-05T11:52:59.069Z,4.50
2022-08-05T11:53:59.068Z,2.20
2022-08-05T11:54:59.072Z,2.50
2022-08-05T11:55:59.073Z,2.50
2022-08-05T11:56:59.078Z,2.50
2022-08-05T11:58:09.557Z,3.40
2022-08-05T11:58:59.079Z,2.80
2022-08-05T11:59:59.084Z,3.60
2022-08-05T12:00:59.088Z,3.10
2022-08-05T12:01:59.090Z,2.20
2022-08-05T12:02:59.143Z,3.20
2022-08-05T12:03:59.090Z,3.60
2022-08-05T12:04:59.971Z,2.70
2022-08-05T12:05:59.102Z,2.70
2022-08-05T12:06:59.099Z,3.30
2022-08-05T12:08:03.702Z,2.70
2022-08-05T12:08:59.104Z,2.60
2022-08-05T12:10:01.958Z,2.60
2022-08-05T12:10:59.108Z,2.60
2022-08-05T12:11:59.112Z,3.90
2022-08-05T12:13:00.310Z,3.10
2022-08-05T12:13:59.431Z,3.50
2022-08-05T12:14:59.120Z,2.70
2022-08-05T12:15:59.121Z,3.10
2022-08-05T12:16:59.123Z,3.40
2022-08-05T12:18:10.231Z,2.70
2022-08-05T12:18:59.130Z,2.70
2022-08-05T12:20:25.691Z,3.30
2022-08-05T12:20:59.134Z,2.50
2022-08-05T12:21:59.136Z,2.90
2022-08-05T12:22:59.152Z,2.10
2022-08-05T12:24:00.099Z,4.00
2022-08-05T12:24:59.144Z,2.50
2022-08-05T12:25:59.146Z,3.00
2022-08-05T12:26:59.149Z,2.40
2022-08-05T12:27:59.152Z,2.40
2022-08-05T12:28:59.157Z,3.00
2022-08-05T12:29:59.160Z,2.30
2022-08-05T12:31:02.273Z,2.60
2022-08-05T12:32:02.190Z,2.60
2022-08-05T12:33:07.295Z,2.60
2022-08-05T12:33:59.166Z,1.90
2022-08-05T12:34:59.168Z,2.80
2022-08-05T12:35:59.235Z,2.30
2022-08-05T12:36:59.174Z,2.90
2022-08-05T12:37:59.177Z,2.20
2022-08-05T12:38:59.244Z,2.30
2022-08-05T12:40:03.184Z,2.00
2022-08-05T12:40:59.183Z,2.60
2022-08-05T12:41:59.187Z,4.10
2022-08-05T12:42:59.192Z,3.00
2022-08-05T12:43:59.193Z,2.80
2022-08-05T12:44:59.195Z,2.50
2022-08-05T12:45:59.200Z,3.80
2022-08-05T12:46:59.204Z,2.60
2022-08-05T12:48:01.725Z,2.30
2022-08-05T12:48:59.205Z,4.30
2022-08-05T12:50:04.464Z,3.00
2022-08-05T12:50:59.217Z,2.60
2022-08-05T12:52:12.832Z,2.50
2022-08-05T12:52:59.218Z,2.60
2022-08-05T12:53:59.224Z,2.10
2022-08-05T12:54:59.221Z,3.50
2022-08-05T12:55:59.223Z,2.70
2022-08-05T12:56:59.225Z,2.40
2022-08-05T12:58:51.067Z,2.50
2022-08-05T12:59:02.523Z,3.00
2022-08-05T13:01:56.932Z,3.00
2022-08-05T13:02:04.063Z,3.10
2022-08-05T13:02:07.756Z,2.70
2022-08-05T13:02:59.298Z,2.20
2022-08-05T13:03:59.250Z,4.10
2022-08-05T13:04:59.263Z,3.20
2022-08-05T13:05:59.261Z,3.60
2022-08-05T13:06:59.264Z,2.60
2022-08-05T13:08:01.136Z,1.90
2022-08-05T13:08:59.268Z,3.00
2022-08-05T13:09:59.275Z,2.10
2022-08-05T13:10:59.273Z,2.80
2022-08-05T13:12:02.767Z,3.40
2022-08-05T13:12:59.286Z,3.20
2022-08-05T13:14:05.755Z,2.50
2022-08-05T13:15:06.757Z,2.00
2022-08-05T13:15:59.290Z,2.90
2022-08-05T13:16:59.293Z,3.20
2022-08-05T13:17:59.477Z,2.90
2022-08-05T13:18:59.296Z,4.70